Terminal Aerodrome Forecast
Issued by NWS Twin Cities, MN

Home | Current Version | Previous Version | Graphics & Text | Print | Product List | Glossary On
Versions: 1 2 3 4 5 6 7 8 9 10 11 12 13 14
000
FTUS43 KMPX 081700
TAFSTC
TAF
KSTC 081738Z 0818/0918 31016G23KT P6SM BKN050
     FM090100 31006KT P6SM SKC
     FM091000 28003KT P6SM SKC
     FM091600 30008KT P6SM FEW050 SCT100=

USA.gov is the U.S. government's official web portal to all federal, state and local government web resources and services.